Time;durP1;ratioP1;P1;durP2;ratioP2;P2;SDS_P1;SDS_P2;PMS_P1;PMS_P2;Temp;Humidity;BMP_temperature;BMP_pressure;BME280_temperature;BME280_humidity;BME280_pressure;Samples;Min_cycle;Max_cycle;Signal;HPM_P1;HPM_P2
2022/11/04 00:01:03;;;;;;;;;;;;;;;9.74;70.25;100357.50;5035516;28;19920;-52
2022/11/04 00:03:29;;;;;;;;;;;;;;;9.70;70.43;100356.84;5028382;28;19961;-56
2022/11/04 00:05:54;;;;;;;;;;;;;;;9.70;70.46;100359.47;5044700;28;19949;-57
2022/11/04 00:08:25;;;;;;;;;;;;;;;9.70;70.15;100358.59;5048305;28;19920;-52
2022/11/04 00:13:38;;;;;;;;;;;;;;;9.69;70.12;100364.78;5047418;28;19924;-52
2022/11/04 00:18:47;;;;;;;;;;;;;;;9.68;69.94;100374.47;5047670;28;19924;-52
2022/11/04 00:29:24;;;;;;;;;;;;;;;9.55;70.35;100357.75;5045363;28;19928;-52
2022/11/04 00:34:33;;;;;;;;;;;;;;;9.44;70.43;100351.38;5043833;28;20035;-52
2022/11/04 00:36:59;;;;;;;;;;;;;;;9.41;70.69;100355.94;5043337;28;20451;-52
2022/11/04 00:39:24;;;;;;;;;;;;;;;9.36;70.91;100353.59;5049706;28;19927;-52
2022/11/04 00:41:49;;;;;;;;;;;;;;;9.33;70.84;100356.38;5047079;28;20376;-59
2022/11/04 00:44:15;;;;;;;;;;;;;;;9.29;70.98;100352.28;5043338;28;20043;-52
2022/11/04 00:46:40;;;;;;;;;;;;;;;9.23;71.32;100347.38;5042509;28;19940;-52
2022/11/04 00:49:05;;;;;;;;;;;;;;;9.17;71.58;100343.31;5031317;28;20016;-52
2022/11/04 00:51:31;;;;;;;;;;;;;;;9.12;71.85;100335.72;5048686;28;19935;-52
2022/11/04 00:53:57;;;;;;;;;;;;;;;9.08;71.74;100344.69;5046744;28;19917;-53
2022/11/04 00:56:22;;;;;;;;;;;;;;;9.03;72.06;100348.53;5048441;28;19935;-54
2022/11/04 00:58:48;;;;;;;;;;;;;;;9.03;71.89;100353.78;5045986;28;20380;-52
2022/11/04 01:01:17;;;;;;;;;;;;;;;9.00;71.90;100349.53;5052368;28;20055;-52
2022/11/04 01:03:43;;;;;;;;;;;;;;;8.98;71.78;100347.00;5046076;28;20007;-52
2022/11/04 01:06:08;;;;;;;;;;;;;;;8.94;71.88;100342.84;5049769;28;20059;-53
2022/11/04 01:08:34;;;;;;;;;;;;;;;8.90;71.92;100341.38;5031131;28;19925;-52
2022/11/04 01:11:06;;;;;;;;;;;;;;;8.85;72.28;100338.97;5038332;28;20058;-52
2022/11/04 01:13:31;;;;;;;;;;;;;;;8.83;72.20;100351.38;5037980;28;19925;-55
2022/11/04 01:16:00;;;;;;;;;;;;;;;8.78;72.51;100347.28;5033576;28;19927;-52
2022/11/04 01:18:26;;;;;;;;;;;;;;;8.77;72.37;100345.63;5046229;28;19913;-58
2022/11/04 01:20:52;;;;;;;;;;;;;;;8.71;72.55;100333.66;5044056;28;19925;-54
2022/11/04 01:23:17;;;;;;;;;;;;;;;8.70;72.95;100334.59;5042115;28;19921;-52
2022/11/04 01:25:42;;;;;;;;;;;;;;;8.67;72.81;100334.81;5042754;28;20023;-52
2022/11/04 01:28:08;;;;;;;;;;;;;;;8.68;72.56;100333.88;5048230;28;19921;-52
2022/11/04 01:30:33;;;;;;;;;;;;;;;8.66;72.84;100330.47;5050065;28;19935;-53
2022/11/04 01:32:59;;;;;;;;;;;;;;;8.64;72.91;100325.31;5040955;28;19924;-52
2022/11/04 01:35:24;;;;;;;;;;;;;;;8.60;73.00;100322.94;5050922;28;19917;-52
2022/11/04 01:37:49;;;;;;;;;;;;;;;8.56;72.97;100316.16;5041895;28;19928;-53
2022/11/04 01:40:15;;;;;;;;;;;;;;;8.52;73.03;100316.38;5042210;28;19917;-52
2022/11/04 01:42:40;;;;;;;;;;;;;;;8.50;72.86;100318.22;5039932;28;20034;-52
2022/11/04 01:45:12;;;;;;;;;;;;;;;8.48;73.00;100320.09;5048933;28;20291;-51
2022/11/04 01:47:56;;;;;;;;;;;;;;;8.47;72.96;100318.38;5047682;28;19935;-52
2022/11/04 01:50:24;;;;;;;;;;;;;;;8.44;73.15;100312.44;5042767;28;20318;-52
2022/11/04 01:52:51;;;;;;;;;;;;;;;8.44;72.97;100313.28;5047727;28;20363;-52
2022/11/04 01:55:19;;;;;;;;;;;;;;;8.40;73.57;100301.25;5041719;28;19960;-52
2022/11/04 01:57:46;;;;;;;;;;;;;;;8.41;73.29;100308.19;5047025;28;20007;-53
2022/11/04 02:00:12;;;;;;;;;;;;;;;8.39;73.42;100299.59;5044345;28;19913;-51
2022/11/04 02:02:43;;;;;;;;;;;;;;;8.36;73.68;100307.63;5040432;28;19932;-51
2022/11/04 02:05:08;;;;;;;;;;;;;;;8.39;73.58;100304.84;5040521;28;19925;-53
2022/11/04 02:07:34;;;;;;;;;;;;;;;8.41;73.33;100294.25;5039655;28;20039;-52
2022/11/04 02:10:00;;;;;;;;;;;;;;;8.38;73.60;100295.28;5044238;28;19956;-52
2022/11/04 02:15:10;;;;;;;;;;;;;;;8.41;73.51;100281.16;5041033;28;19928;-52
2022/11/04 02:17:48;;;;;;;;;;;;;;;8.39;73.36;100274.22;5043678;28;19929;-52
2022/11/04 02:20:13;;;;;;;;;;;;;;;8.33;73.74;100271.09;5042476;28;19921;-52
2022/11/04 02:22:39;;;;;;;;;;;;;;;8.33;73.85;100268.47;5045037;28;19927;-55
2022/11/04 02:25:04;;;;;;;;;;;;;;;8.31;73.71;100263.34;5044580;28;19995;-52
2022/11/04 02:27:41;;;;;;;;;;;;;;;8.30;73.61;100268.63;5047348;28;19928;-54
2022/11/04 02:30:09;;;;;;;;;;;;;;;8.29;73.66;100273.06;5043531;28;19917;-52
2022/11/04 02:32:34;;;;;;;;;;;;;;;8.28;73.86;100267.88;5044448;28;19917;-52
2022/11/04 02:35:07;;;;;;;;;;;;;;;8.27;73.78;100269.66;5040328;28;19931;-52
2022/11/04 02:37:35;;;;;;;;;;;;;;;8.27;73.98;100274.91;5044056;28;19949;-52
2022/11/04 02:40:06;;;;;;;;;;;;;;;8.29;73.85;100277.44;5042068;28;19932;-54
2022/11/04 02:42:41;;;;;;;;;;;;;;;8.28;73.83;100265.25;5046847;28;20007;-52
2022/11/04 02:45:35;;;;;;;;;;;;;;;8.27;74.05;100258.31;5046201;28;20372;-53
2022/11/04 02:48:05;;;;;;;;;;;;;;;8.30;73.95;100247.66;5030501;28;19924;-52
2022/11/04 02:50:50;;;;;;;;;;;;;;;8.32;73.90;100240.56;5042006;28;20395;-53
2022/11/04 02:53:25;;;;;;;;;;;;;;;8.34;73.93;100236.09;5040967;28;19921;-52
2022/11/04 02:55:53;;;;;;;;;;;;;;;8.37;73.73;100234.13;5044982;28;20362;-52
2022/11/04 02:58:24;;;;;;;;;;;;;;;8.38;73.84;100229.75;5044164;28;19921;-51
2022/11/04 03:00:51;;;;;;;;;;;;;;;8.42;73.56;100236.47;5047496;28;19924;-52
2022/11/04 03:03:19;;;;;;;;;;;;;;;8.46;73.46;100237.19;5041185;28;20280;-52
2022/11/04 03:05:47;;;;;;;;;;;;;;;8.45;73.73;100238.94;5043292;28;19959;-53
2022/11/04 03:08:20;;;;;;;;;;;;;;;8.48;73.82;100230.94;5040724;28;19920;-52
2022/11/04 03:10:49;;;;;;;;;;;;;;;8.53;73.74;100235.91;5042650;28;19924;-52
2022/11/04 03:13:22;;;;;;;;;;;;;;;8.57;73.52;100240.06;5045356;28;19967;-52
2022/11/04 03:15:54;;;;;;;;;;;;;;;8.60;73.23;100231.16;5045104;28;19929;-53
2022/11/04 03:18:32;;;;;;;;;;;;;;;8.64;73.28;100230.88;5049248;28;19917;-58
2022/11/04 03:21:00;;;;;;;;;;;;;;;8.69;73.17;100235.88;5042774;28;19948;-51
2022/11/04 03:23:26;;;;;;;;;;;;;;;8.73;73.12;100245.25;5049772;28;19917;-52
2022/11/04 03:25:55;;;;;;;;;;;;;;;8.74;72.99;100240.84;5049638;28;19917;-52
2022/11/04 03:28:35;;;;;;;;;;;;;;;8.73;73.10;100237.38;5051781;28;19912;-53
2022/11/04 03:31:03;;;;;;;;;;;;;;;8.73;72.96;100242.63;5049497;28;19967;-52
2022/11/04 03:33:39;;;;;;;;;;;;;;;8.68;73.15;100248.13;5051679;28;19931;-53
2022/11/04 03:36:07;;;;;;;;;;;;;;;8.68;73.22;100247.31;5048029;28;19925;-52
2022/11/04 03:38:33;;;;;;;;;;;;;;;8.65;73.02;100248.31;5048799;28;19923;-52
2022/11/04 03:41:00;;;;;;;;;;;;;;;8.64;73.19;100240.53;5045575;28;20011;-54
2022/11/04 03:43:26;;;;;;;;;;;;;;;8.63;73.04;100242.31;5043718;28;19921;-52
2022/11/04 03:45:53;;;;;;;;;;;;;;;8.60;73.20;100241.66;5040677;28;20004;-55
2022/11/04 03:48:18;;;;;;;;;;;;;;;8.56;73.34;100234.88;5041250;28;19917;-51
2022/11/04 03:50:48;;;;;;;;;;;;;;;8.53;73.33;100233.28;5050340;28;19932;-52
2022/11/04 03:53:23;;;;;;;;;;;;;;;8.51;73.43;100236.00;5052927;28;19921;-51
2022/11/04 03:55:59;;;;;;;;;;;;;;;8.48;73.21;100235.31;5047210;28;19924;-54
2022/11/04 03:58:27;;;;;;;;;;;;;;;8.47;73.28;100229.22;5048011;28;19925;-52
2022/11/04 04:00:59;;;;;;;;;;;;;;;8.46;73.64;100234.56;5041522;28;19948;-54
2022/11/04 04:03:28;;;;;;;;;;;;;;;8.40;73.80;100238.34;5043889;28;19921;-52
2022/11/04 04:05:57;;;;;;;;;;;;;;;8.38;73.65;100227.13;5047629;28;21264;-55
2022/11/04 04:08:35;;;;;;;;;;;;;;;8.39;73.75;100232.28;5044553;28;19925;-51
2022/11/04 04:11:10;;;;;;;;;;;;;;;8.35;73.82;100233.38;5035893;28;20376;-52
2022/11/04 04:13:45;;;;;;;;;;;;;;;8.34;73.98;100228.22;5048263;28;20434;-52
2022/11/04 04:16:19;;;;;;;;;;;;;;;8.31;73.97;100233.63;5044369;28;20339;-51
2022/11/04 04:18:44;;;;;;;;;;;;;;;8.30;74.14;100234.56;5043547;28;19971;-55
2022/11/04 04:21:13;;;;;;;;;;;;;;;8.29;74.06;100230.25;5042219;28;19920;-55
2022/11/04 04:29:08;;;;;;;;;;;;;;;8.29;74.26;100251.22;5043960;28;19928;-54
2022/11/04 04:31:51;;;;;;;;;;;;;;;8.24;74.47;100233.97;5042872;28;19928;-55
2022/11/04 04:34:27;;;;;;;;;;;;;;;8.27;74.66;100232.97;5046017;28;19965;-52
2022/11/04 04:37:16;;;;;;;;;;;;;;;8.30;74.60;100237.19;5036474;28;20298;-54
2022/11/04 04:45:26;;;;;;;;;;;;;;;8.36;74.42;100234.22;5042549;28;19932;-52
2022/11/04 04:47:51;;;;;;;;;;;;;;;8.36;74.54;100234.22;5045683;28;20372;-52
2022/11/04 04:50:18;;;;;;;;;;;;;;;8.37;74.38;100234.13;5044573;28;19912;-55
2022/11/04 04:52:45;;;;;;;;;;;;;;;8.39;74.42;100220.94;5047732;28;20016;-52
2022/11/04 04:55:11;;;;;;;;;;;;;;;8.41;74.44;100224.31;5045630;28;19917;-52
2022/11/04 04:57:36;;;;;;;;;;;;;;;8.41;74.50;100224.31;5049178;28;19917;-51
2022/11/04 05:00:03;;;;;;;;;;;;;;;8.42;74.46;100219.94;5042367;28;19925;-52
2022/11/04 05:02:28;;;;;;;;;;;;;;;8.41;74.40;100224.31;5049122;28;19917;-53
2022/11/04 05:04:55;;;;;;;;;;;;;;;8.42;74.44;100226.00;5044638;28;19979;-52
2022/11/04 05:07:20;;;;;;;;;;;;;;;8.42;74.29;100225.16;5043195;28;19921;-52
2022/11/04 05:09:45;;;;;;;;;;;;;;;8.39;74.47;100227.03;5045362;28;19929;-54
2022/11/04 05:12:11;;;;;;;;;;;;;;;8.39;74.55;100232.28;5046383;28;19925;-52
2022/11/04 05:14:36;;;;;;;;;;;;;;;8.41;74.49;100234.78;5041527;28;19928;-57
2022/11/04 05:17:01;;;;;;;;;;;;;;;8.45;74.48;100243.34;5042945;28;19921;-52
2022/11/04 05:19:26;;;;;;;;;;;;;;;8.47;74.45;100241.50;5039458;28;20400;-52
2022/11/04 05:21:52;;;;;;;;;;;;;;;8.47;74.41;100238.88;5039438;28;20003;-52
2022/11/04 05:24:17;;;;;;;;;;;;;;;8.46;74.41;100243.25;5044364;28;20367;-56
2022/11/04 05:26:42;;;;;;;;;;;;;;;8.46;74.18;100237.19;5049549;28;19960;-54
2022/11/04 05:29:08;;;;;;;;;;;;;;;8.47;74.41;100228.38;5047261;28;19921;-55
2022/11/04 05:31:34;;;;;;;;;;;;;;;8.50;74.06;100236.06;5046152;28;19935;-56
2022/11/04 05:33:59;;;;;;;;;;;;;;;8.53;74.20;100238.53;5045294;28;20027;-56
2022/11/04 05:36:24;;;;;;;;;;;;;;;8.56;74.14;100237.50;5050030;28;19924;-51
2022/11/04 05:38:50;;;;;;;;;;;;;;;8.57;74.11;100228.69;5047100;28;20703;-54
2022/11/04 05:41:24;;;;;;;;;;;;;;;8.60;74.10;100233.78;5044500;28;20392;-56
2022/11/04 05:43:53;;;;;;;;;;;;;;;8.60;74.28;100236.41;5048850;28;19948;-54
2022/11/04 05:46:19;;;;;;;;;;;;;;;8.61;74.24;100233.72;5039074;28;20453;-54
2022/11/04 05:48:44;;;;;;;;;;;;;;;8.63;74.19;100238.84;5042200;28;19921;-56
2022/11/04 05:51:13;;;;;;;;;;;;;;;8.65;74.10;100252.72;5043379;28;19921;-56
2022/11/04 05:53:39;;;;;;;;;;;;;;;8.66;74.16;100252.63;5043510;28;19990;-54
2022/11/04 05:56:04;;;;;;;;;;;;;;;8.65;74.21;100257.97;5045809;28;20386;-56
2022/11/04 05:58:29;;;;;;;;;;;;;;;8.67;74.18;100253.50;5046232;28;20401;-53
2022/11/04 06:01:09;;;;;;;;;;;;;;;8.65;74.34;100252.72;5047964;28;19925;-56
2022/11/04 06:03:34;;;;;;;;;;;;;;;8.67;74.22;100253.50;5048131;28;19979;-57
2022/11/04 06:05:59;;;;;;;;;;;;;;;8.66;74.34;100259.66;5046427;28;19917;-54
2022/11/04 06:08:25;;;;;;;;;;;;;;;8.65;74.08;100258.81;5045075;28;19923;-54
2022/11/04 06:10:50;;;;;;;;;;;;;;;8.65;74.47;100268.47;5045879;28;20385;-56
2022/11/04 06:13:15;;;;;;;;;;;;;;;8.62;74.46;100279.13;5050572;28;20019;-56
2022/11/04 06:15:40;;;;;;;;;;;;;;;8.62;74.36;100263.38;5043251;28;19921;-55
2022/11/04 06:18:06;;;;;;;;;;;;;;;8.62;74.49;100276.50;5045562;28;20410;-54
2022/11/04 06:20:31;;;;;;;;;;;;;;;8.63;74.60;100281.66;5043038;28;19948;-58
2022/11/04 06:22:56;;;;;;;;;;;;;;;8.62;74.53;100271.25;5043978;28;19964;-55
2022/11/04 06:25:22;;;;;;;;;;;;;;;8.64;74.59;100272.84;5047564;28;19931;-55
2022/11/04 06:27:47;;;;;;;;;;;;;;;8.65;74.43;100273.72;5048025;28;19912;-55
2022/11/04 06:30:12;;;;;;;;;;;;;;;8.65;74.65;100285.03;5049554;28;19920;-54
2022/11/04 06:32:40;;;;;;;;;;;;;;;8.65;74.62;100285.03;5048378;28;20147;-57
2022/11/04 06:35:07;;;;;;;;;;;;;;;8.65;74.79;100273.72;5033544;28;19917;-57
2022/11/04 06:37:33;;;;;;;;;;;;;;;8.66;74.64;100278.03;5041269;28;19921;-51
2022/11/04 06:39:58;;;;;;;;;;;;;;;8.69;74.78;100276.06;5044376;28;20032;-53
2022/11/04 06:42:25;;;;;;;;;;;;;;;8.73;74.91;100286.38;5047109;28;19931;-57
2022/11/04 06:44:51;;;;;;;;;;;;;;;8.71;74.80;100286.47;5043914;28;19928;-57
2022/11/04 06:47:16;;;;;;;;;;;;;;;8.75;74.62;100281.91;5046071;28;19913;-52
2022/11/04 06:49:42;;;;;;;;;;;;;;;8.79;74.63;100284.25;5041660;28;19920;-54
2022/11/04 06:52:07;;;;;;;;;;;;;;;8.81;74.70;100284.16;5049581;28;19932;-53
2022/11/04 06:54:33;;;;;;;;;;;;;;;8.83;74.70;100292.78;5043217;28;19921;-55
2022/11/04 06:56:58;;;;;;;;;;;;;;;8.83;74.82;100295.41;5048125;28;19921;-56
2022/11/04 06:59:24;;;;;;;;;;;;;;;8.85;74.70;100314.53;5048423;28;19925;-50
2022/11/04 07:01:50;;;;;;;;;;;;;;;8.89;74.83;100296.84;5035745;28;19921;-56
2022/11/04 07:04:16;;;;;;;;;;;;;;;8.91;74.86;100302.84;5036714;28;20862;-55
2022/11/04 07:06:42;;;;;;;;;;;;;;;8.94;74.75;100305.28;5038292;28;19917;-57
2022/11/04 07:09:09;;;;;;;;;;;;;;;8.98;74.88;100301.56;5036404;28;19917;-51
2022/11/04 07:11:35;;;;;;;;;;;;;;;9.04;74.75;100310.84;5033953;28;20035;-53
2022/11/04 07:14:00;;;;;;;;;;;;;;;9.08;74.68;100300.09;5038071;28;19921;-53
2022/11/04 07:16:25;;;;;;;;;;;;;;;9.12;74.59;100304.22;5041380;28;19935;-56
2022/11/04 07:18:53;;;;;;;;;;;;;;;9.15;74.57;100304.03;5039773;28;19912;-54
2022/11/04 07:21:18;;;;;;;;;;;;;;;9.18;74.64;100307.41;5035595;28;20027;-57
2022/11/04 07:23:43;;;;;;;;;;;;;;;9.20;74.50;100301.16;5033746;28;19992;-54
2022/11/04 07:26:09;;;;;;;;;;;;;;;9.23;74.59;100302.75;5043851;28;19984;-53
2022/11/04 07:28:35;;;;;;;;;;;;;;;9.27;74.57;100310.34;5046670;28;19921;-54
2022/11/04 07:31:01;;;;;;;;;;;;;;;9.32;74.48;100299.56;5039831;28;19929;-56
2022/11/04 07:33:27;;;;;;;;;;;;;;;9.35;74.54;100307.25;5039022;28;20366;-54
2022/11/04 07:35:53;;;;;;;;;;;;;;;9.36;74.47;100303.69;5044150;28;20425;-54
2022/11/04 07:38:21;;;;;;;;;;;;;;;9.40;74.46;100317.47;5041982;28;19928;-53
2022/11/04 07:40:46;;;;;;;;;;;;;;;9.42;74.31;100316.47;5044601;28;19924;-53
2022/11/04 07:43:12;;;;;;;;;;;;;;;9.47;74.36;100318.81;5046375;28;19913;-53
2022/11/04 07:45:37;;;;;;;;;;;;;;;9.51;74.20;100322.09;5045483;28;19928;-53
2022/11/04 07:48:02;;;;;;;;;;;;;;;9.53;73.96;100322.84;5042912;28;19913;-53
2022/11/04 07:50:28;;;;;;;;;;;;;;;9.56;74.02;100327.94;5041565;28;19928;-53
2022/11/04 07:52:53;;;;;;;;;;;;;;;9.57;74.16;100329.63;5039016;28;19917;-53
2022/11/04 07:55:19;;;;;;;;;;;;;;;9.56;74.06;100322.66;5040859;28;19925;-52
2022/11/04 07:57:47;;;;;;;;;;;;;;;9.58;74.20;100320.81;5031378;28;19925;-54
2022/11/04 08:00:14;;;;;;;;;;;;;;;9.61;74.01;100325.84;5033817;28;19940;-54
2022/11/04 08:02:39;;;;;;;;;;;;;;;9.65;74.02;100329.16;5044016;28;21504;-53
2022/11/04 08:05:05;;;;;;;;;;;;;;;9.67;74.18;100329.91;5045211;28;19944;-55
2022/11/04 08:07:31;;;;;;;;;;;;;;;9.68;73.95;100323.72;5034191;28;20381;-53
2022/11/04 08:09:56;;;;;;;;;;;;;;;9.70;73.94;100322.69;5047275;28;19982;-52
2022/11/04 08:12:23;;;;;;;;;;;;;;;9.72;74.01;100323.44;5051954;28;20355;-52
2022/11/04 08:14:48;;;;;;;;;;;;;;;9.74;74.21;100321.56;5047209;28;19932;-53
2022/11/04 08:17:13;;;;;;;;;;;;;;;9.79;74.10;100328.31;5049049;28;19913;-54
2022/11/04 08:19:39;;;;;;;;;;;;;;;9.83;73.93;100319.28;5045880;28;19961;-54
2022/11/04 08:22:04;;;;;;;;;;;;;;;9.85;74.17;100317.44;5044823;28;19921;-55
2022/11/04 08:24:29;;;;;;;;;;;;;;;9.92;74.10;100313.47;5044872;28;19921;-53
2022/11/04 08:26:55;;;;;;;;;;;;;;;9.97;73.84;100308.78;5050117;28;19929;-52
2022/11/04 08:29:20;;;;;;;;;;;;;;;10.02;73.89;100304.09;5049802;28;20301;-52
2022/11/04 08:31:45;;;;;;;;;;;;;;;10.04;73.72;100310.09;5045116;28;19929;-53
2022/11/04 08:34:11;;;;;;;;;;;;;;;10.10;73.64;100308.00;5052253;28;19929;-54
2022/11/04 08:36:37;;;;;;;;;;;;;;;10.14;73.71;100317.41;5045608;28;19971;-54
2022/11/04 08:39:04;;;;;;;;;;;;;;;10.17;73.65;100298.81;5046585;28;19931;-50
2022/11/04 08:41:30;;;;;;;;;;;;;;;10.20;73.41;100302.06;5043310;28;20403;-51
2022/11/04 08:43:59;;;;;;;;;;;;;;;10.26;73.31;100300.84;5044747;28;19925;-52
2022/11/04 08:46:25;;;;;;;;;;;;;;;10.31;73.24;100308.44;5046272;28;19921;-51
2022/11/04 08:48:51;;;;;;;;;;;;;;;10.36;73.24;100301.94;5049886;28;19921;-51
2022/11/04 08:51:18;;;;;;;;;;;;;;;10.44;72.96;100298.00;5044260;28;21005;-52
2022/11/04 08:53:43;;;;;;;;;;;;;;;10.50;72.94;100295.00;5039273;28;19925;-51
2022/11/04 08:56:10;;;;;;;;;;;;;;;10.57;72.71;100293.66;5049315;28;19984;-51
2022/11/04 08:58:35;;;;;;;;;;;;;;;10.64;72.70;100289.69;5044688;28;19987;-51
2022/11/04 09:01:04;;;;;;;;;;;;;;;10.72;72.42;100304.09;5044012;28;20319;-51
2022/11/04 09:03:29;;;;;;;;;;;;;;;10.77;72.26;100307.28;5044755;28;19924;-57
2022/11/04 09:05:56;;;;;;;;;;;;;;;10.81;72.15;100307.00;5019587;28;19925;-52
2022/11/04 09:08:21;;;;;;;;;;;;;;;10.85;71.81;100302.34;5042974;28;19925;-52
2022/11/04 09:10:47;;;;;;;;;;;;;;;10.88;71.59;100302.16;5040549;28;19921;-52
2022/11/04 09:13:14;;;;;;;;;;;;;;;10.91;71.49;100288.81;5045176;28;19916;-56
2022/11/04 09:15:40;;;;;;;;;;;;;;;10.96;71.72;100294.63;5048792;28;20376;-51
2022/11/04 09:18:06;;;;;;;;;;;;;;;11.04;71.48;100295.88;5048790;28;19927;-52
2022/11/04 09:20:31;;;;;;;;;;;;;;;11.07;71.28;100295.69;5043457;28;20343;-52
2022/11/04 09:22:57;;;;;;;;;;;;;;;11.08;71.10;100292.94;5018150;28;19917;-53
2022/11/04 09:25:22;;;;;;;;;;;;;;;11.06;71.48;100289.56;5045877;28;19928;-51
2022/11/04 09:27:48;;;;;;;;;;;;;;;11.11;71.23;100298.00;5045903;28;19921;-51
2022/11/04 09:30:13;;;;;;;;;;;;;;;11.18;71.15;100303.69;5049187;28;19912;-52
2022/11/04 09:32:38;;;;;;;;;;;;;;;11.21;70.89;100303.50;5047680;28;20004;-52
2022/11/04 09:35:04;;;;;;;;;;;;;;;11.26;71.08;100311.06;5041975;28;19927;-52
2022/11/04 09:37:29;;;;;;;;;;;;;;;11.28;70.69;100312.66;5044992;28;19920;-51
2022/11/04 09:39:54;;;;;;;;;;;;;;;11.32;70.91;100321.22;5038708;28;20394;-52
2022/11/04 09:42:26;;;;;;;;;;;;;;;11.37;70.70;100329.63;5044447;28;19920;-56
2022/11/04 09:44:54;;;;;;;;;;;;;;;11.42;70.41;100335.44;5039658;28;20411;-52
2022/11/04 09:47:21;;;;;;;;;;;;;;;11.50;70.37;100334.91;5050156;28;20023;-60
2022/11/04 09:49:48;;;;;;;;;;;;;;;11.57;70.42;100320.34;5043054;28;19924;-53
2022/11/04 09:52:17;;;;;;;;;;;;;;;11.59;70.30;100318.47;5046765;28;20019;-52
2022/11/04 09:54:43;;;;;;;;;;;;;;;11.59;70.17;100315.81;5045412;28;19917;-51
2022/11/04 09:57:14;;;;;;;;;;;;;;;11.59;70.25;100312.38;5048269;28;20362;-51
2022/11/04 09:59:40;;;;;;;;;;;;;;;11.59;70.42;100317.63;5043594;28;19925;-52
2022/11/04 10:02:08;;;;;;;;;;;;;;;11.59;70.29;100313.19;5039533;28;20269;-52
2022/11/04 10:04:36;;;;;;;;;;;;;;;11.64;70.15;100309.41;5039183;28;19928;-52
2022/11/04 10:07:10;;;;;;;;;;;;;;;11.65;70.06;100311.09;5048796;28;19916;-52
2022/11/04 10:09:35;;;;;;;;;;;;;;;11.67;70.17;100309.19;5045540;28;19959;-52
2022/11/04 10:12:00;;;;;;;;;;;;;;;11.70;70.29;100299.28;5045938;28;19953;-52
2022/11/04 10:14:39;;;;;;;;;;;;;;;11.71;69.85;100284.31;5044505;28;19943;-51
2022/11/04 10:17:23;;;;;;;;;;;;;;;11.76;70.03;100284.81;5023144;28;20454;-51
2022/11/04 10:20:12;;;;;;;;;;;;;;;11.83;70.20;100282.59;5038934;28;19917;-55
2022/11/04 10:22:58;;;;;;;;;;;;;;;11.88;70.09;100281.31;5041603;28;19925;-51
2022/11/04 10:25:37;;;;;;;;;;;;;;;11.92;70.04;100273.19;5042546;28;20430;-51
2022/11/04 10:28:03;;;;;;;;;;;;;;;11.93;69.80;100267.84;5040455;28;19956;-51
2022/11/04 10:30:30;;;;;;;;;;;;;;;11.95;69.71;100267.72;5044655;28;19952;-52
2022/11/04 10:32:57;;;;;;;;;;;;;;;11.98;69.69;100275.41;5046312;28;19921;-54
2022/11/04 10:35:25;;;;;;;;;;;;;;;11.98;69.53;100296.50;5040123;28;20012;-54
2022/11/04 10:37:52;;;;;;;;;;;;;;;12.03;69.84;100297.91;5046380;28;19913;-51
2022/11/04 10:40:20;;;;;;;;;;;;;;;12.09;69.64;100301.88;5045835;28;19939;-52
2022/11/04 10:42:46;;;;;;;;;;;;;;;12.16;69.50;100310.19;5043905;28;19921;-51
2022/11/04 10:45:12;;;;;;;;;;;;;;;12.19;69.35;100315.25;5046589;28;19919;-55
2022/11/04 10:47:56;;;;;;;;;;;;;;;12.18;69.11;100317.03;5045982;28;19917;-51
2022/11/04 10:50:24;;;;;;;;;;;;;;;12.17;69.35;100331.22;5045556;28;20303;-51
2022/11/04 10:52:50;;;;;;;;;;;;;;;12.18;69.38;100327.59;5045590;28;19916;-51
2022/11/04 10:55:44;;;;;;;;;;;;;;;12.20;69.33;100327.50;5047148;28;19928;-51
2022/11/04 10:58:36;;;;;;;;;;;;;;;12.23;69.40;100332.56;5028924;28;19922;-57
2022/11/04 11:01:20;;;;;;;;;;;;;;;12.26;69.47;100329.69;5008430;28;19940;-51
2022/11/04 11:03:45;;;;;;;;;;;;;;;12.28;69.57;100333.06;5040326;28;19920;-52
2022/11/04 11:06:29;;;;;;;;;;;;;;;12.35;69.46;100339.59;5045305;28;19921;-55
2022/11/04 11:08:59;;;;;;;;;;;;;;;12.33;69.74;100349.41;5050313;28;19913;-53
2022/11/04 11:11:46;;;;;;;;;;;;;;;12.27;69.91;100341.91;5047535;28;19929;-55
2022/11/04 11:14:17;;;;;;;;;;;;;;;12.33;70.01;100345.91;5051803;28;19917;-53
2022/11/04 11:16:44;;;;;;;;;;;;;;;12.42;69.75;100341.78;5033260;28;19917;-53
2022/11/04 11:19:15;;;;;;;;;;;;;;;12.45;69.63;100345.06;5050121;28;19970;-53
2022/11/04 11:21:43;;;;;;;;;;;;;;;12.41;69.71;100354.13;5047009;28;19995;-53
2022/11/04 11:24:29;;;;;;;;;;;;;;;12.43;69.66;100357.50;5050596;28;20751;-54
2022/11/04 11:26:59;;;;;;;;;;;;;;;12.43;69.86;100354.00;5046179;28;19972;-54
2022/11/04 11:29:39;;;;;;;;;;;;;;;12.42;69.81;100363.75;5043127;28;19987;-52
2022/11/04 11:32:05;;;;;;;;;;;;;;;12.28;70.26;100359.44;5042367;28;19929;-53
2022/11/04 11:34:31;;;;;;;;;;;;;;;12.33;70.21;100367.03;5044792;28;20292;-54
2022/11/04 11:36:57;;;;;;;;;;;;;;;12.28;70.79;100367.34;5047253;28;19916;-55
2022/11/04 11:39:26;;;;;;;;;;;;;;;12.31;70.62;100367.13;5040542;28;19931;-52
2022/11/04 11:41:52;;;;;;;;;;;;;;;12.36;70.51;100369.44;5040480;28;19967;-54
2022/11/04 11:44:20;;;;;;;;;;;;;;;12.36;70.44;100364.16;5042198;28;19921;-52
2022/11/04 11:46:53;;;;;;;;;;;;;;;12.37;70.51;100373.78;5043321;28;20459;-53
2022/11/04 11:49:27;;;;;;;;;;;;;;;12.37;70.51;100368.50;5045410;28;19928;-54
2022/11/04 11:51:53;;;;;;;;;;;;;;;12.38;70.64;100372.81;5046830;28;20381;-53
2022/11/04 11:54:34;;;;;;;;;;;;;;;12.37;70.50;100370.31;5047971;28;19935;-55
2022/11/04 11:57:10;;;;;;;;;;;;;;;12.31;70.81;100377.69;5040252;28;19957;-53
2022/11/04 11:59:35;;;;;;;;;;;;;;;12.32;70.99;100368.00;5048561;28;19923;-52
2022/11/04 12:02:11;;;;;;;;;;;;;;;12.32;70.98;100368.00;5031217;28;19925;-51
2022/11/04 12:04:36;;;;;;;;;;;;;;;12.34;70.74;100368.72;5037395;28;19920;-54
2022/11/04 12:07:11;;;;;;;;;;;;;;;12.36;70.65;100366.81;5046235;28;19923;-54
2022/11/04 12:09:40;;;;;;;;;;;;;;;12.39;70.53;100368.41;5050496;28;20000;-52
2022/11/04 12:12:33;;;;;;;;;;;;;;;12.35;70.58;100373.03;5046225;28;19917;-56
2022/11/04 12:14:58;;;;;;;;;;;;;;;12.34;70.68;100371.34;5043932;28;19924;-53
2022/11/04 12:17:38;;;;;;;;;;;;;;;12.33;70.52;100378.44;5043421;28;20266;-54
2022/11/04 12:20:04;;;;;;;;;;;;;;;12.33;70.66;100381.06;5046405;28;19924;-52
2022/11/04 12:22:43;;;;;;;;;;;;;;;12.33;70.59;100385.50;5047425;28;20261;-54
2022/11/04 12:25:29;;;;;;;;;;;;;;;12.30;70.33;100385.72;5050902;28;19939;-55
2022/11/04 12:28:03;;;;;;;;;;;;;;;12.24;70.41;100380.88;5044223;28;19924;-52
2022/11/04 12:30:31;;;;;;;;;;;;;;;12.20;70.64;100380.25;5047892;28;20495;-52
2022/11/04 12:33:04;;;;;;;;;;;;;;;12.20;70.53;100381.09;5049149;28;19935;-52
2022/11/04 12:35:29;;;;;;;;;;;;;;;12.19;70.68;100374.13;5048012;28;19920;-54
2022/11/04 12:37:55;;;;;;;;;;;;;;;12.17;70.52;100378.69;5052088;28;19913;-55
2022/11/04 12:40:24;;;;;;;;;;;;;;;12.12;70.85;100372.88;5048671;28;20067;-52
2022/11/04 12:43:05;;;;;;;;;;;;;;;12.08;70.85;100379.31;5048505;28;19917;-53
2022/11/04 12:45:36;;;;;;;;;;;;;;;12.04;71.12;100385.75;5046037;28;19953;-54
2022/11/04 12:48:24;;;;;;;;;;;;;;;12.00;71.19;100384.28;5031906;28;19993;-52
2022/11/04 12:50:55;;;;;;;;;;;;;;;11.92;71.62;100381.28;5034903;28;20008;-53
2022/11/04 12:53:20;;;;;;;;;;;;;;;11.89;71.72;100385.81;5043333;28;20386;-53
2022/11/04 12:56:06;;;;;;;;;;;;;;;11.84;71.66;100387.97;5044640;28;20024;-55
2022/11/04 12:58:42;;;;;;;;;;;;;;;11.84;71.57;100395.88;5042056;28;20373;-53
2022/11/04 13:01:13;;;;;;;;;;;;;;;11.81;72.14;100406.63;5041919;28;19999;-53
2022/11/04 13:03:41;;;;;;;;;;;;;;;11.79;72.11;100403.22;5046124;28;20291;-53
2022/11/04 13:06:14;;;;;;;;;;;;;;;11.78;72.12;100400.72;5044511;28;19925;-52
2022/11/04 13:08:40;;;;;;;;;;;;;;;11.76;72.13;100408.72;5045665;28;19924;-52
2022/11/04 13:11:21;;;;;;;;;;;;;;;11.69;72.90;100416.19;5044218;28;19978;-52
2022/11/04 13:13:48;;;;;;;;;;;;;;;11.69;72.66;100413.56;5044251;28;19967;-52
2022/11/04 13:16:13;;;;;;;;;;;;;;;11.69;72.77;100412.72;5043926;28;20028;-54
2022/11/04 13:18:40;;;;;;;;;;;;;;;11.64;73.53;100410.41;5025816;28;20432;-53
2022/11/04 13:21:05;;;;;;;;;;;;;;;11.62;73.65;100411.44;5048876;28;20012;-53